METAR Data
IDs: Format: Raw Decoded Include TAF

Data at: 1333 UTC 14 Dec 2019

PAFE 141156Z AUTO 00000KT 10SM OVC012 03/02 A3007 RMK AO2 SLP196 70028 T00280017 10033 20022 51008
PAFE 140956Z AUTO 09003KT 10SM OVC012 03/02 A3006 RMK AO2 SLP193 T00280017
PAFE 140912Z AUTO 09003KT 10SM BKN014 02/02 A3005 RMK AO2 FZRANO
PAFE 140756Z AUTO 00000KT 10SM BKN009 03/02 A3004 RMK AO2 SLP186 T00280017
PAFE 140656Z AUTO 07005KT 10SM BKN013 03/02 A3003 RMK AO2 SLP182 T00280017
PAFE 140323Z AUTO 11003KT 9SM -RA OVC013 03/02 A3001 RMK AO2 P0000
PAFE 140110Z AUTO 07005KT 10SM FEW018 BKN036 OVC075 03/02 A2999 RMK AO2
PAFE 140043Z AUTO 10006KT 10SM FEW013 BKN018 03/02 A2999 RMK AO2 RAB21E35 P0000
PAFE 132156Z AUTO 12004KT 10SM -RA FEW011 BKN016 OVC028 04/03 A2997 RMK AO2 SLP162 P0003 T00390028
PAFE 131940Z AUTO 11006G18KT 8SM -RA BKN012 BKN018 OVC026 04/02 A2997 RMK AO2 P0009
PAFE 131856Z AUTO 09005KT 10SM -RA FEW017 BKN050 OVC075 04/03 A2996 RMK AO2 RAB47 SLP158 P0000 T00390028
PAFE 131756Z AUTO 09007KT 10SM SCT024 BKN030 04/03 A2995 RMK AO2 RAB1657E27 SLP153 P0000 60008 T00390028 10044 20033 51008
PAFE 131751Z AUTO 09006KT 10SM SCT020 OVC030 04/03 A2994 RMK AO2 RAB1657E27 P0000
PAFE 131356Z AUTO 08005KT 10SM -RA SCT015 BKN023 OVC065 04/03 A2991 RMK AO2 SLP141 P0003 T00390033
PAFE 131338Z AUTO 11004KT 9SM -RA BKN015 BKN021 OVC034 04/03 A2992 RMK AO2 P0002
PAFE 131256Z AUTO 10006KT 10SM -RA FEW029 BKN045 OVC070 04/03 A2991 RMK AO2 RAE17B45 SLP140 P0003 T00390028
PAFE 131156Z AUTO 11008KT 6SM RA BR BKN022 OVC026 04/03 A2989 RMK AO2 RAE02B20 SLP136 P0005 60005 70020 T00440028 10056 20039 53026
PAFE 131142Z AUTO 09003KT 6SM -RA BR SCT019 BKN024 OVC038 04/03 A2989 RMK AO2 RAE02B20 P0002
PAFE 131114Z AUTO 09006KT 10SM FEW012 BKN043 BKN065 04/03 A2988 RMK AO2 RAE02 P0000
PAFE 131056Z AUTO 10007KT 10SM -RA FEW012 BKN020 BKN027 04/03 A2987 RMK AO2 RAB38 SLP127 P0000 T00440033
PAFE 131044Z AUTO 11010KT 7SM -RA BKN020 BKN033 OVC060 04/03 A2986 RMK AO2 RAB38 P0000
PAFE 130956Z AUTO 09006KT 10SM OVC034 04/03 A2984 RMK AO2 SLP118 T00440033
PAFE 130856Z AUTO 11007KT 10SM FEW011 BKN038 04/03 A2982 RMK AO2 SLP109 60000 T00440033 400610044 51030
PAFE 130756Z AUTO 10005KT 10SM FEW030 SCT042 OVC065 05/04 A2980 RMK AO2 RAE10 SLP103 P0000 T00500039
PAFE 130642Z AUTO 11009KT 10SM BKN030 OVC042 05/04 A2976 RMK AO2 RAE0559 P0000
PAFE 130533Z AUTO 10009KT 10SM OVC026 05/04 A2972 RMK AO2 RAE23 P0000
PAFE 130256Z AUTO 09008KT 10SM FEW014 SCT030 05/04 A2963 RMK AO2 RAB12E40 SLP047 P0000 60001 T00500039 50012